createdAt,value
2023-05-23T00:00:22.266Z,9.70
2023-05-23T00:02:49.803Z,9.63
2023-05-23T00:05:19.079Z,10.07
2023-05-23T00:07:46.230Z,10.73
2023-05-23T00:10:14.464Z,10.13
2023-05-23T00:12:42.527Z,10.47
2023-05-23T00:15:10.131Z,10.37
2023-05-23T00:17:38.358Z,10.37
2023-05-23T00:20:06.020Z,11.47
2023-05-23T00:22:33.162Z,11.53
2023-05-23T00:25:02.193Z,11.23
2023-05-23T00:27:29.447Z,11.80
2023-05-23T00:29:56.788Z,12.27
2023-05-23T00:32:23.931Z,12.43
2023-05-23T00:34:54.108Z,12.93
2023-05-23T00:37:22.428Z,12.73
2023-05-23T00:39:49.721Z,12.40
2023-05-23T00:42:16.881Z,12.67
2023-05-23T00:44:44.056Z,11.93
2023-05-23T00:47:13.803Z,12.53
2023-05-23T00:49:41.506Z,12.77
2023-05-23T00:52:08.726Z,12.67
2023-05-23T00:54:37.226Z,13.47
2023-05-23T00:57:04.578Z,13.83
2023-05-23T00:59:31.870Z,14.07
2023-05-23T01:02:00.388Z,15.50
2023-05-23T01:04:28.362Z,15.43
2023-05-23T01:06:56.153Z,16.03
2023-05-23T01:09:24.364Z,17.23
2023-05-23T01:11:51.587Z,17.17
2023-05-23T01:14:22.134Z,18.37
2023-05-23T01:17:24.939Z,17.87
2023-05-23T01:20:05.617Z,17.40
2023-05-23T01:22:48.643Z,17.30
2023-05-23T01:25:36.266Z,17.07
2023-05-23T01:28:05.782Z,16.87
2023-05-23T01:30:33.569Z,16.50
2023-05-23T01:33:01.449Z,16.20
2023-05-23T01:35:29.002Z,16.70
2023-05-23T01:37:56.889Z,15.50
2023-05-23T01:40:24.423Z,14.80
2023-05-23T01:42:52.760Z,15.03
2023-05-23T01:45:20.877Z,15.40
2023-05-23T01:47:49.926Z,15.53
2023-05-23T01:50:17.606Z,15.23
2023-05-23T01:52:44.889Z,14.73
2023-05-23T01:55:14.317Z,14.40
2023-05-23T01:57:42.022Z,14.20
2023-05-23T02:00:12.580Z,14.80
2023-05-23T02:02:39.768Z,13.93
2023-05-23T02:05:07.228Z,14.00
2023-05-23T02:07:34.449Z,13.80
2023-05-23T02:10:01.630Z,13.37
2023-05-23T02:12:28.809Z,12.97
2023-05-23T02:14:56.198Z,12.43
2023-05-23T02:17:24.334Z,12.50
2023-05-23T02:19:51.603Z,12.67
2023-05-23T02:22:18.765Z,13.20
2023-05-23T02:24:45.932Z,14.10
2023-05-23T02:27:13.201Z,14.13
2023-05-23T02:29:40.340Z,13.43
2023-05-23T02:32:07.639Z,14.03
2023-05-23T02:34:34.867Z,14.30
2023-05-23T02:37:02.021Z,14.87
2023-05-23T02:39:29.201Z,14.53
2023-05-23T02:41:56.349Z,14.23
2023-05-23T02:44:23.510Z,14.37
2023-05-23T02:46:50.707Z,15.03
2023-05-23T02:49:17.922Z,14.83
2023-05-23T02:51:45.061Z,15.47
2023-05-23T02:54:12.214Z,15.53
2023-05-23T02:56:39.408Z,13.97
2023-05-23T02:59:06.617Z,14.43
2023-05-23T03:01:33.830Z,15.00
2023-05-23T03:04:01.040Z,15.20
2023-05-23T03:06:28.765Z,15.40
2023-05-23T03:08:57.056Z,14.93
2023-05-23T03:11:24.219Z,15.67
2023-05-23T03:13:51.370Z,16.17
2023-05-23T03:16:18.525Z,15.30
2023-05-23T03:18:45.685Z,17.23
2023-05-23T03:21:12.794Z,15.27
2023-05-23T03:23:39.910Z,16.20
2023-05-23T03:26:07.201Z,15.57
2023-05-23T03:28:34.340Z,15.23
2023-05-23T03:31:01.458Z,14.57
2023-05-23T03:33:28.596Z,14.83
2023-05-23T03:35:57.567Z,13.93
2023-05-23T03:38:24.695Z,14.33
2023-05-23T03:40:51.833Z,14.53
2023-05-23T03:43:18.921Z,14.73
2023-05-23T03:45:46.153Z,15.40
2023-05-23T03:48:13.349Z,15.27
2023-05-23T03:50:40.500Z,15.37
2023-05-23T03:53:07.693Z,15.40
2023-05-23T03:55:34.837Z,15.27
2023-05-23T03:58:02.032Z,15.37
2023-05-23T04:00:29.144Z,15.73
2023-05-23T04:02:57.379Z,15.50
2023-05-23T04:05:24.629Z,15.97
2023-05-23T04:07:52.526Z,15.67
2023-05-23T04:10:19.687Z,14.80
2023-05-23T04:12:47.858Z,15.47
2023-05-23T04:15:15.043Z,15.30
2023-05-23T04:17:43.750Z,15.80
2023-05-23T04:20:11.612Z,14.57
2023-05-23T04:22:38.778Z,15.70
2023-05-23T04:25:06.548Z,14.93
2023-05-23T04:27:34.644Z,16.50
2023-05-23T04:30:01.936Z,15.77
2023-05-23T04:32:29.102Z,15.47
2023-05-23T04:34:56.890Z,15.50
2023-05-23T04:37:26.206Z,15.97
2023-05-23T04:39:53.682Z,15.27
2023-05-23T04:42:24.668Z,15.93
2023-05-23T04:44:52.758Z,14.90
2023-05-23T04:47:20.183Z,15.47
2023-05-23T04:49:47.978Z,14.17
2023-05-23T04:52:15.180Z,13.87
2023-05-23T04:54:44.839Z,14.03
2023-05-23T04:57:12.505Z,13.90
2023-05-23T04:59:39.894Z,13.48
2023-05-23T05:02:07.793Z,14.85
2023-05-23T05:04:35.122Z,13.77
2023-05-23T05:07:04.296Z,13.88
2023-05-23T05:09:31.953Z,13.70
2023-05-23T05:11:59.698Z,12.85
2023-05-23T05:14:27.849Z,13.65
2023-05-23T05:16:57.574Z,14.37
2023-05-23T05:19:25.199Z,15.00
2023-05-23T05:21:52.560Z,16.15
2023-05-23T05:24:21.149Z,16.70
2023-05-23T05:26:48.966Z,15.45
2023-05-23T05:29:16.423Z,15.48
2023-05-23T05:31:45.235Z,15.65
2023-05-23T05:34:13.117Z,15.48
2023-05-23T05:36:46.995Z,16.00
2023-05-23T05:39:15.094Z,15.65
2023-05-23T05:41:42.285Z,14.68
2023-05-23T05:44:09.646Z,14.50
2023-05-23T05:46:36.844Z,14.13
2023-05-23T05:49:04.115Z,13.00
2023-05-23T05:51:31.598Z,12.15
2023-05-23T05:53:58.887Z,11.60
2023-05-23T05:56:28.089Z,11.68
2023-05-23T05:58:55.383Z,11.52
2023-05-23T06:01:23.450Z,10.70
2023-05-23T06:03:51.023Z,10.82
2023-05-23T06:06:18.324Z,10.25
2023-05-23T06:08:45.633Z,9.52
2023-05-23T06:11:12.756Z,9.70
2023-05-23T06:13:40.116Z,8.73
2023-05-23T06:16:07.479Z,8.63
2023-05-23T06:18:34.774Z,8.82
2023-05-23T06:21:01.947Z,8.85
2023-05-23T06:23:29.155Z,8.55
2023-05-23T06:25:56.367Z,8.00
2023-05-23T06:28:23.527Z,8.20
2023-05-23T06:30:50.722Z,8.50
2023-05-23T06:33:17.925Z,7.97
2023-05-23T06:35:45.066Z,8.23
2023-05-23T06:38:12.321Z,7.85
2023-05-23T06:40:39.726Z,8.40
2023-05-23T06:43:07.144Z,8.52
2023-05-23T06:45:35.914Z,7.90
2023-05-23T06:48:03.344Z,7.70
2023-05-23T06:50:30.607Z,7.80
2023-05-23T06:52:57.795Z,7.50
2023-05-23T06:55:25.239Z,6.95
2023-05-23T06:57:52.475Z,7.32
2023-05-23T07:00:20.192Z,6.93
2023-05-23T07:02:48.703Z,7.68
2023-05-23T07:05:17.422Z,6.60
2023-05-23T07:07:44.811Z,6.90
2023-05-23T07:10:12.032Z,6.40
2023-05-23T07:12:39.232Z,5.93
2023-05-23T07:15:06.665Z,5.70
2023-05-23T07:17:33.951Z,5.47
2023-05-23T07:20:01.207Z,5.22
2023-05-23T07:22:28.358Z,5.13
2023-05-23T07:24:55.553Z,4.85
2023-05-23T07:27:22.761Z,5.15
2023-05-23T07:29:50.878Z,4.82
2023-05-23T07:32:18.026Z,4.43
2023-05-23T07:34:45.191Z,4.82
2023-05-23T07:37:12.358Z,4.20
2023-05-23T07:39:39.498Z,3.97
2023-05-23T07:42:06.662Z,4.60
2023-05-23T07:44:33.859Z,4.90
2023-05-23T07:47:01.138Z,4.53
2023-05-23T07:49:28.402Z,5.38
2023-05-23T07:51:55.977Z,5.15
2023-05-23T07:54:23.115Z,5.47
2023-05-23T07:56:50.308Z,4.72
2023-05-23T07:59:17.448Z,5.10
2023-05-23T08:01:45.084Z,4.43
2023-05-23T08:04:12.615Z,3.95
2023-05-23T08:06:45.790Z,4.07
2023-05-23T08:09:26.585Z,3.95
2023-05-23T08:11:54.520Z,3.70
2023-05-23T08:14:22.686Z,3.45
2023-05-23T08:16:49.965Z,3.70
2023-05-23T08:19:17.298Z,3.38
2023-05-23T08:21:44.560Z,3.50
2023-05-23T08:24:14.950Z,3.35
2023-05-23T08:26:42.467Z,3.67
2023-05-23T08:29:10.610Z,3.40
2023-05-23T08:31:37.934Z,3.28
2023-05-23T08:34:05.271Z,3.00
2023-05-23T08:36:34.276Z,3.00
2023-05-23T08:39:02.088Z,2.75
2023-05-23T08:41:30.623Z,3.05
2023-05-23T08:43:58.309Z,2.50
2023-05-23T08:46:27.083Z,2.80
2023-05-23T08:48:55.156Z,2.40
2023-05-23T08:51:23.099Z,2.65
2023-05-23T08:53:52.908Z,2.25
2023-05-23T08:56:20.712Z,2.45
2023-05-23T08:58:48.584Z,2.70
2023-05-23T09:01:18.435Z,2.70
2023-05-23T09:03:45.772Z,4.20
2023-05-23T09:06:13.143Z,4.75
2023-05-23T09:08:40.530Z,3.17
2023-05-23T09:11:08.864Z,2.30
2023-05-23T09:13:36.046Z,2.60
2023-05-23T09:16:04.725Z,3.05
2023-05-23T09:18:39.288Z,2.28
2023-05-23T09:21:07.095Z,3.05
2023-05-23T09:23:34.509Z,8.45
2023-05-23T09:26:05.221Z,2.67
2023-05-23T09:28:33.787Z,2.40
2023-05-23T09:31:04.885Z,6.07
2023-05-23T09:33:50.101Z,2.50
2023-05-23T09:36:18.006Z,2.42
2023-05-23T09:38:52.604Z,2.42
2023-05-23T09:41:21.688Z,2.55
2023-05-23T09:43:55.126Z,2.35
2023-05-23T09:46:22.746Z,2.78
2023-05-23T09:48:51.784Z,2.47
2023-05-23T09:51:21.368Z,2.55
2023-05-23T09:53:48.861Z,2.42
2023-05-23T09:56:19.441Z,2.55
2023-05-23T09:58:50.312Z,2.38
2023-05-23T10:01:17.800Z,2.50
2023-05-23T10:03:58.102Z,2.60
2023-05-23T10:06:32.956Z,2.08
2023-05-23T10:09:03.348Z,2.50
2023-05-23T10:11:36.740Z,2.40
2023-05-23T10:14:06.270Z,2.55
2023-05-23T10:16:52.513Z,2.38
2023-05-23T10:19:19.742Z,2.50
2023-05-23T10:22:01.425Z,2.28
2023-05-23T10:24:28.588Z,2.25
2023-05-23T10:26:56.058Z,2.28
2023-05-23T10:29:23.898Z,2.25
2023-05-23T10:31:51.631Z,2.50
2023-05-23T10:34:37.632Z,2.40
2023-05-23T10:37:05.772Z,2.30
2023-05-23T10:39:48.212Z,2.00
2023-05-23T10:42:20.665Z,2.00
2023-05-23T10:44:47.844Z,1.90
2023-05-23T10:47:26.641Z,2.00
2023-05-23T10:49:54.559Z,2.00
2023-05-23T10:52:26.716Z,2.15
2023-05-23T10:54:55.019Z,2.35
2023-05-23T10:57:23.422Z,2.08
2023-05-23T10:59:51.943Z,2.47
2023-05-23T11:02:20.448Z,2.15
2023-05-23T11:04:48.651Z,2.13
2023-05-23T11:07:31.691Z,1.90
2023-05-23T11:10:08.157Z,2.38
2023-05-23T11:12:42.712Z,2.45
2023-05-23T11:15:20.430Z,2.35
2023-05-23T11:17:54.979Z,2.10
2023-05-23T11:20:26.553Z,2.28
2023-05-23T11:22:55.786Z,2.00
2023-05-23T11:25:40.010Z,2.05
2023-05-23T11:28:07.330Z,2.20
2023-05-23T11:30:39.506Z,2.25
2023-05-23T11:33:13.619Z,2.20
2023-05-23T11:35:44.612Z,1.80
2023-05-23T11:38:12.239Z,2.00
2023-05-23T11:40:40.732Z,2.08
2023-05-23T11:43:12.973Z,1.95
2023-05-23T11:45:40.493Z,2.00
2023-05-23T11:48:11.903Z,2.10
2023-05-23T11:50:49.377Z,2.17
2023-05-23T11:53:19.030Z,2.25
2023-05-23T11:55:50.282Z,2.10
2023-05-23T11:58:17.528Z,2.10
2023-05-23T12:00:45.617Z,2.22
2023-05-23T12:03:13.069Z,2.15
2023-05-23T12:05:40.501Z,2.20
2023-05-23T12:08:07.701Z,1.92
2023-05-23T12:10:34.876Z,2.20
2023-05-23T12:13:02.240Z,1.92
2023-05-23T12:15:31.758Z,2.10
2023-05-23T12:17:59.034Z,2.40
2023-05-23T12:20:26.706Z,1.90
2023-05-23T12:22:55.052Z,2.10
2023-05-23T12:25:23.336Z,2.20
2023-05-23T12:27:50.572Z,2.30
2023-05-23T12:30:18.342Z,2.22
2023-05-23T12:32:49.242Z,2.17
2023-05-23T12:35:16.596Z,2.55
2023-05-23T12:37:47.293Z,2.40
2023-05-23T12:40:15.169Z,2.95
2023-05-23T12:42:55.279Z,3.20
2023-05-23T12:45:23.538Z,3.00
2023-05-23T12:47:53.739Z,3.03
2023-05-23T12:50:21.226Z,3.00
2023-05-23T12:52:48.446Z,2.80
2023-05-23T12:55:15.793Z,2.70
2023-05-23T12:57:42.972Z,2.90
2023-05-23T13:00:10.557Z,2.90
2023-05-23T13:02:37.915Z,3.05
2023-05-23T13:05:05.189Z,2.60
2023-05-23T13:07:32.467Z,2.40
2023-05-23T13:09:59.737Z,2.47
2023-05-23T13:12:27.542Z,2.42
2023-05-23T13:14:54.757Z,2.30
2023-05-23T13:17:22.104Z,2.25
2023-05-23T13:19:49.262Z,1.85
2023-05-23T13:22:16.645Z,2.38
2023-05-23T13:24:44.011Z,2.00
2023-05-23T13:27:11.211Z,1.85
2023-05-23T13:29:38.437Z,1.70
2023-05-23T13:32:05.699Z,1.88
2023-05-23T13:34:35.211Z,1.88
2023-05-23T13:37:02.434Z,1.70
2023-05-23T13:39:29.664Z,1.77
2023-05-23T13:41:56.828Z,1.67
2023-05-23T13:44:24.096Z,1.55
2023-05-23T13:46:51.333Z,1.70
2023-05-23T13:49:18.673Z,1.50
2023-05-23T13:51:46.033Z,1.50
2023-05-23T13:54:13.968Z,1.65
2023-05-23T13:56:41.244Z,1.63
2023-05-23T13:59:08.376Z,1.50
2023-05-23T14:01:35.601Z,1.70
2023-05-23T14:04:04.292Z,1.60
2023-05-23T14:06:32.892Z,1.80
2023-05-23T14:09:00.073Z,1.88
2023-05-23T14:11:28.451Z,1.88
2023-05-23T14:13:57.894Z,1.73
2023-05-23T14:16:25.119Z,1.67
2023-05-23T14:18:52.405Z,1.60
2023-05-23T14:21:19.819Z,1.70
2023-05-23T14:23:47.096Z,1.70
2023-05-23T14:26:14.266Z,1.60
2023-05-23T14:28:41.619Z,1.60
2023-05-23T14:31:08.790Z,1.67
2023-05-23T14:33:36.034Z,1.83
2023-05-23T14:36:03.456Z,1.80
2023-05-23T14:38:30.640Z,2.13
2023-05-23T14:40:59.213Z,1.83
2023-05-23T14:43:26.939Z,1.60
2023-05-23T14:45:54.128Z,1.80
2023-05-23T14:48:21.299Z,1.70
2023-05-23T14:50:48.534Z,1.85
2023-05-23T14:53:15.986Z,1.75
2023-05-23T14:55:43.267Z,1.80
2023-05-23T14:58:10.677Z,2.00
2023-05-23T15:00:38.304Z,1.95
2023-05-23T15:03:05.590Z,1.90
2023-05-23T15:05:32.883Z,2.10
2023-05-23T15:08:00.474Z,2.00
2023-05-23T15:10:27.644Z,2.00
2023-05-23T15:12:54.902Z,1.80
2023-05-23T15:15:23.544Z,1.60
2023-05-23T15:17:51.212Z,1.73
2023-05-23T15:20:18.504Z,1.65
2023-05-23T15:22:46.249Z,2.03
2023-05-23T15:25:13.397Z,1.48
2023-05-23T15:27:40.621Z,1.55
2023-05-23T15:30:08.059Z,1.58
2023-05-23T15:32:35.281Z,1.90
2023-05-23T15:35:02.479Z,1.50
2023-05-23T15:37:29.628Z,1.60
2023-05-23T15:39:56.752Z,1.40
2023-05-23T15:42:23.869Z,1.60
2023-05-23T15:44:51.342Z,2.20
2023-05-23T15:47:19.260Z,1.60
2023-05-23T15:49:46.423Z,2.50
2023-05-23T15:52:13.705Z,1.50
2023-05-23T15:54:40.892Z,1.67
2023-05-23T15:57:08.059Z,1.70
2023-05-23T15:59:37.576Z,1.50
2023-05-23T16:02:06.357Z,1.85
2023-05-23T16:04:36.014Z,1.60
2023-05-23T16:07:05.941Z,1.70
2023-05-23T16:09:33.120Z,1.75
2023-05-23T16:12:00.278Z,1.60
2023-05-23T16:14:27.444Z,1.70
2023-05-23T16:16:54.634Z,1.90
2023-05-23T16:19:21.987Z,1.80
2023-05-23T16:21:50.326Z,1.80
2023-05-23T16:24:18.298Z,2.22
2023-05-23T16:26:45.599Z,3.30
2023-05-23T16:29:13.834Z,2.35
2023-05-23T16:31:41.140Z,2.38
2023-05-23T16:34:08.542Z,2.20
2023-05-23T16:36:36.670Z,2.35
2023-05-23T16:39:04.018Z,2.40
2023-05-23T16:41:31.229Z,2.00
2023-05-23T16:43:58.380Z,2.45
2023-05-23T16:46:25.651Z,2.53
2023-05-23T16:48:52.885Z,2.70
2023-05-23T16:51:20.108Z,2.55
2023-05-23T16:53:47.648Z,2.63
2023-05-23T16:56:14.847Z,2.50
2023-05-23T16:58:42.178Z,2.70
2023-05-23T17:01:09.455Z,2.60
2023-05-23T17:03:36.851Z,3.00
2023-05-23T17:06:04.133Z,2.90
2023-05-23T17:08:31.296Z,2.60
2023-05-23T17:10:58.502Z,2.78
2023-05-23T17:13:26.031Z,2.83
2023-05-23T17:15:53.229Z,2.75
2023-05-23T17:18:20.568Z,2.78
2023-05-23T17:20:47.719Z,2.85
2023-05-23T17:23:14.926Z,2.83
2023-05-23T17:25:42.580Z,2.70
2023-05-23T17:28:09.946Z,2.90
2023-05-23T17:30:37.097Z,2.80
2023-05-23T17:33:04.386Z,2.40
2023-05-23T17:35:31.729Z,2.92
2023-05-23T17:38:00.545Z,3.03
2023-05-23T17:40:27.748Z,3.03
2023-05-23T17:42:54.941Z,2.55
2023-05-23T17:45:22.171Z,3.00
2023-05-23T17:47:49.386Z,2.85
2023-05-23T17:50:16.683Z,3.00
2023-05-23T17:52:44.777Z,3.10
2023-05-23T17:55:12.027Z,3.00
2023-05-23T17:57:39.275Z,2.83
2023-05-23T18:00:07.131Z,2.90
2023-05-23T18:02:34.404Z,2.80
2023-05-23T18:05:02.099Z,2.67
2023-05-23T18:07:29.653Z,3.30
2023-05-23T18:09:59.938Z,3.17
2023-05-23T18:12:27.150Z,2.90
2023-05-23T18:14:54.382Z,2.90
2023-05-23T18:17:21.786Z,2.93
2023-05-23T18:19:49.457Z,2.90
2023-05-23T18:22:16.751Z,3.70
2023-05-23T18:24:44.154Z,2.93
2023-05-23T18:27:11.288Z,3.30
2023-05-23T18:29:38.518Z,3.13
2023-05-23T18:32:05.847Z,2.90
2023-05-23T18:34:33.004Z,3.10
2023-05-23T18:37:00.265Z,3.20
2023-05-23T18:39:27.413Z,3.20
2023-05-23T18:41:54.586Z,3.00
2023-05-23T18:44:23.083Z,2.90
2023-05-23T18:46:50.492Z,3.10
2023-05-23T18:49:17.816Z,3.00
2023-05-23T18:51:47.423Z,2.73
2023-05-23T18:54:14.570Z,2.87
2023-05-23T18:56:42.005Z,3.00
2023-05-23T18:59:13.544Z,3.07
2023-05-23T19:01:41.101Z,3.33
2023-05-23T19:04:08.713Z,2.70
2023-05-23T19:06:36.418Z,3.30
2023-05-23T19:09:09.378Z,2.87
2023-05-23T19:11:37.660Z,3.50
2023-05-23T19:14:04.925Z,3.13
2023-05-23T19:16:34.328Z,3.10
2023-05-23T19:19:01.507Z,2.80
2023-05-23T19:21:28.776Z,2.97
2023-05-23T19:23:56.573Z,3.20
2023-05-23T19:26:24.071Z,3.37
2023-05-23T19:28:51.358Z,3.20
2023-05-23T19:31:18.588Z,3.07
2023-05-23T19:33:45.764Z,3.10
2023-05-23T19:36:13.423Z,3.00
2023-05-23T19:38:40.602Z,3.07
2023-05-23T19:41:08.693Z,3.27
2023-05-23T19:43:35.865Z,3.53
2023-05-23T19:46:03.077Z,3.43
2023-05-23T19:48:30.399Z,3.40
2023-05-23T19:50:57.582Z,3.43
2023-05-23T19:53:24.752Z,3.57
2023-05-23T19:55:52.249Z,3.20
2023-05-23T19:58:19.451Z,3.90
2023-05-23T20:00:46.615Z,3.57
2023-05-23T20:03:13.781Z,3.50
2023-05-23T20:05:41.194Z,3.60
2023-05-23T20:08:08.562Z,3.87
2023-05-23T20:10:35.745Z,3.30
2023-05-23T20:13:02.955Z,3.90
2023-05-23T20:15:39.556Z,3.60
2023-05-23T20:18:07.584Z,3.70
2023-05-23T20:20:34.885Z,3.80
2023-05-23T20:23:02.085Z,3.60
2023-05-23T20:25:29.309Z,3.90
2023-05-23T20:27:56.618Z,3.87
2023-05-23T20:30:23.898Z,3.60
2023-05-23T20:32:53.591Z,3.80
2023-05-23T20:35:22.490Z,3.83
2023-05-23T20:37:53.589Z,3.77
2023-05-23T20:40:22.226Z,4.00
2023-05-23T20:42:49.921Z,4.00
2023-05-23T20:45:17.320Z,4.33
2023-05-23T20:47:44.814Z,3.83
2023-05-23T20:50:15.525Z,3.93
2023-05-23T20:52:43.248Z,3.67
2023-05-23T20:55:10.927Z,3.97
2023-05-23T20:57:38.361Z,3.77
2023-05-23T21:00:13.117Z,3.90
2023-05-23T21:02:43.868Z,3.60
2023-05-23T21:05:12.359Z,4.00
2023-05-23T21:07:40.072Z,3.53
2023-05-23T21:10:07.456Z,3.97
2023-05-23T21:12:34.657Z,4.00
2023-05-23T21:15:01.792Z,3.60
2023-05-23T21:17:29.018Z,3.93
2023-05-23T21:19:56.283Z,3.97
2023-05-23T21:22:23.521Z,4.17
2023-05-23T21:24:50.846Z,4.03
2023-05-23T21:27:18.036Z,4.07
2023-05-23T21:29:46.862Z,4.20
2023-05-23T21:32:14.301Z,3.87
2023-05-23T21:34:41.658Z,4.20
2023-05-23T21:37:09.157Z,3.60
2023-05-23T21:39:50.052Z,3.90
2023-05-23T21:42:18.966Z,3.80
2023-05-23T21:44:46.225Z,4.33
2023-05-23T21:47:13.609Z,4.00
2023-05-23T21:49:40.831Z,4.43
2023-05-23T21:52:08.030Z,3.97
2023-05-23T21:54:35.312Z,3.80
2023-05-23T21:57:02.539Z,4.30
2023-05-23T21:59:29.778Z,3.77
2023-05-23T22:01:57.084Z,4.30
2023-05-23T22:04:24.308Z,4.10
2023-05-23T22:06:51.974Z,4.13
2023-05-23T22:09:19.200Z,3.63
2023-05-23T22:11:46.369Z,3.97
2023-05-23T22:14:13.616Z,4.43
2023-05-23T22:16:40.930Z,4.10
2023-05-23T22:19:12.485Z,4.80
2023-05-23T22:21:39.851Z,4.60
2023-05-23T22:24:07.169Z,4.63
2023-05-23T22:26:34.387Z,4.30
2023-05-23T22:29:02.101Z,4.63
2023-05-23T22:31:29.326Z,4.43
2023-05-23T22:33:56.678Z,4.20
2023-05-23T22:36:23.861Z,4.50
2023-05-23T22:38:51.426Z,4.47
2023-05-23T22:41:18.905Z,4.67
2023-05-23T22:43:46.782Z,4.90
2023-05-23T22:46:14.289Z,5.03
2023-05-23T22:48:41.734Z,4.67
2023-05-23T22:51:12.417Z,5.40
2023-05-23T22:53:39.760Z,4.80
2023-05-23T22:56:06.929Z,4.87
2023-05-23T22:58:34.134Z,4.90
2023-05-23T23:01:01.309Z,5.03
2023-05-23T23:03:28.526Z,4.93
2023-05-23T23:05:55.729Z,4.80
2023-05-23T23:08:22.938Z,4.43
2023-05-23T23:10:50.119Z,4.70
2023-05-23T23:13:17.326Z,4.57
2023-05-23T23:15:45.290Z,4.77
2023-05-23T23:18:13.786Z,5.03
2023-05-23T23:20:41.755Z,4.80
2023-05-23T23:23:09.083Z,4.47
2023-05-23T23:25:40.289Z,4.70
2023-05-23T23:28:07.503Z,4.70
2023-05-23T23:30:34.732Z,4.97
2023-05-23T23:33:02.013Z,4.90
2023-05-23T23:35:29.292Z,5.10
2023-05-23T23:37:56.442Z,5.30
2023-05-23T23:40:23.615Z,5.37
2023-05-23T23:42:50.765Z,5.30
2023-05-23T23:45:17.920Z,5.27
2023-05-23T23:47:46.209Z,5.20
2023-05-23T23:50:14.010Z,4.57
2023-05-23T23:52:41.339Z,4.67
2023-05-23T23:55:08.631Z,5.17
2023-05-23T23:57:35.794Z,4.93
